sensor_id;sensor_type;location;lat;lon;timestamp;P1;durP1;ratioP1;P2;durP2;ratioP2
15506;SDS011;7855;52.210;5.982;2022-08-11T00:02:42;5;;;2;;
15506;SDS011;7855;52.210;5.982;2022-08-11T00:04:00;9;;;2;;
15506;SDS011;7855;52.210;5.982;2022-08-11T00:06:14;7;;;2;;
15506;SDS011;7855;52.210;5.982;2022-08-11T00:08:29;5;;;1;;
15506;SDS011;7855;52.210;5.982;2022-08-11T00:10:43;6;;;2;;
15506;SDS011;7855;52.210;5.982;2022-08-11T00:12:58;3;;;1;;
15506;SDS011;7855;52.210;5.982;2022-08-11T00:15:12;8;;;2;;
15506;SDS011;7855;52.210;5.982;2022-08-11T00:17:27;16;;;9;;
15506;SDS011;7855;52.210;5.982;2022-08-11T00:19:43;4;;;2;;
15506;SDS011;7855;52.210;5.982;2022-08-11T00:21:55;13;;;2;;
15506;SDS011;7855;52.210;5.982;2022-08-11T00:24:09;7;;;2;;
15506;SDS011;7855;52.210;5.982;2022-08-11T00:26:24;6;;;2;;
15506;SDS011;7855;52.210;5.982;2022-08-11T00:28:38;10;;;6;;
15506;SDS011;7855;52.210;5.982;2022-08-11T00:30:53;5;;;2;;
15506;SDS011;7855;52.210;5.982;2022-08-11T00:33:07;13;;;2;;
15506;SDS011;7855;52.210;5.982;2022-08-11T00:35:23;6;;;2;;
15506;SDS011;7855;52.210;5.982;2022-08-11T00:37:36;6;;;3;;
15506;SDS011;7855;52.210;5.982;2022-08-11T00:39:52;12;;;4;;
15506;SDS011;7855;52.210;5.982;2022-08-11T00:42:08;5;;;2;;
15506;SDS011;7855;52.210;5.982;2022-08-11T00:44:23;6;;;2;;
15506;SDS011;7855;52.210;5.982;2022-08-11T00:46:36;4;;;2;;
15506;SDS011;7855;52.210;5.982;2022-08-11T00:48:54;5;;;2;;
15506;SDS011;7855;52.210;5.982;2022-08-11T00:51:05;5;;;2;;
15506;SDS011;7855;52.210;5.982;2022-08-11T00:53:36;5;;;3;;
15506;SDS011;7855;52.210;5.982;2022-08-11T00:55:41;7;;;2;;
15506;SDS011;7855;52.210;5.982;2022-08-11T01:00:03;5;;;2;;
15506;SDS011;7855;52.210;5.982;2022-08-11T01:02:16;8;;;5;;
15506;SDS011;7855;52.210;5.982;2022-08-11T01:04:36;7;;;4;;
15506;SDS011;7855;52.210;5.982;2022-08-11T01:06:45;6;;;3;;
15506;SDS011;7855;52.210;5.982;2022-08-11T01:11:16;8;;;3;;
15506;SDS011;7855;52.210;5.982;2022-08-11T01:13:35;5;;;2;;
15506;SDS011;7855;52.210;5.982;2022-08-11T01:18:09;13;;;3;;
15506;SDS011;7855;52.210;5.982;2022-08-11T01:20:23;8;;;3;;
15506;SDS011;7855;52.210;5.982;2022-08-11T01:29:15;5;;;2;;
15506;SDS011;7855;52.210;5.982;2022-08-11T01:31:33;8;;;2;;
15506;SDS011;7855;52.210;5.982;2022-08-11T01:34:01;6;;;3;;
15506;SDS011;7855;52.210;5.982;2022-08-11T01:36:02;6;;;4;;
15506;SDS011;7855;52.210;5.982;2022-08-11T01:38:20;7;;;4;;
15506;SDS011;7855;52.210;5.982;2022-08-11T01:40:39;9;;;4;;
15506;SDS011;7855;52.210;5.982;2022-08-11T01:42:39;6;;;3;;
15506;SDS011;7855;52.210;5.982;2022-08-11T01:47:07;7;;;3;;
15506;SDS011;7855;52.210;5.982;2022-08-11T01:49:20;8;;;3;;
15506;SDS011;7855;52.210;5.982;2022-08-11T01:51:34;6;;;3;;
15506;SDS011;7855;52.210;5.982;2022-08-11T01:53:50;10;;;4;;
15506;SDS011;7855;52.210;5.982;2022-08-11T01:56:04;7;;;3;;
15506;SDS011;7855;52.210;5.982;2022-08-11T01:58:22;6;;;4;;
15506;SDS011;7855;52.210;5.982;2022-08-11T02:00:30;10;;;4;;
15506;SDS011;7855;52.210;5.982;2022-08-11T02:02:45;12;;;5;;
15506;SDS011;7855;52.210;5.982;2022-08-11T02:05:02;7;;;4;;
15506;SDS011;7855;52.210;5.982;2022-08-11T02:07:16;9;;;3;;
15506;SDS011;7855;52.210;5.982;2022-08-11T02:09:32;12;;;5;;
15506;SDS011;7855;52.210;5.982;2022-08-11T02:11:42;6;;;3;;
15506;SDS011;7855;52.210;5.982;2022-08-11T02:13:59;15;;;4;;
15506;SDS011;7855;52.210;5.982;2022-08-11T02:16:16;8;;;4;;
15506;SDS011;7855;52.210;5.982;2022-08-11T02:18:26;7;;;3;;
15506;SDS011;7855;52.210;5.982;2022-08-11T02:20:41;10;;;5;;
15506;SDS011;7855;52.210;5.982;2022-08-11T02:22:55;7;;;4;;
15506;SDS011;7855;52.210;5.982;2022-08-11T02:25:10;15;;;5;;
15506;SDS011;7855;52.210;5.982;2022-08-11T02:27:24;8;;;3;;
15506;SDS011;7855;52.210;5.982;2022-08-11T02:29:41;10;;;4;;
15506;SDS011;7855;52.210;5.982;2022-08-11T02:31:53;8;;;4;;
15506;SDS011;7855;52.210;5.982;2022-08-11T02:34:08;14;;;4;;
15506;SDS011;7855;52.210;5.982;2022-08-11T02:36:23;11;;;3;;
15506;SDS011;7855;52.210;5.982;2022-08-11T02:38:39;7;;;3;;
15506;SDS011;7855;52.210;5.982;2022-08-11T02:40:52;8;;;3;;
15506;SDS011;7855;52.210;5.982;2022-08-11T02:43:07;9;;;4;;
15506;SDS011;7855;52.210;5.982;2022-08-11T02:45:28;7;;;4;;
15506;SDS011;7855;52.210;5.982;2022-08-11T02:47:35;8;;;4;;
15506;SDS011;7855;52.210;5.982;2022-08-11T02:49:49;9;;;5;;
15506;SDS011;7855;52.210;5.982;2022-08-11T02:52:04;8;;;4;;
15506;SDS011;7855;52.210;5.982;2022-08-11T02:54:20;15;;;5;;
15506;SDS011;7855;52.210;5.982;2022-08-11T02:56:36;10;;;4;;
15506;SDS011;7855;52.210;5.982;2022-08-11T02:58:48;9;;;3;;
15506;SDS011;7855;52.210;5.982;2022-08-11T03:01:02;11;;;5;;
15506;SDS011;7855;52.210;5.982;2022-08-11T03:03:16;10;;;5;;
15506;SDS011;7855;52.210;5.982;2022-08-11T03:05:32;7;;;4;;
15506;SDS011;7855;52.210;5.982;2022-08-11T03:07:47;13;;;4;;
15506;SDS011;7855;52.210;5.982;2022-08-11T03:09:59;8;;;4;;
15506;SDS011;7855;52.210;5.982;2022-08-11T03:12:15;13;;;5;;
15506;SDS011;7855;52.210;5.982;2022-08-11T03:14:28;14;;;4;;
15506;SDS011;7855;52.210;5.982;2022-08-11T03:16:43;7;;;3;;
15506;SDS011;7855;52.210;5.982;2022-08-11T03:18:55;12;;;6;;
15506;SDS011;7855;52.210;5.982;2022-08-11T03:21:11;8;;;4;;
15506;SDS011;7855;52.210;5.982;2022-08-11T03:23:24;12;;;4;;
15506;SDS011;7855;52.210;5.982;2022-08-11T03:25:44;10;;;4;;
15506;SDS011;7855;52.210;5.982;2022-08-11T03:27:56;9;;;5;;
15506;SDS011;7855;52.210;5.982;2022-08-11T03:30:09;16;;;6;;
15506;SDS011;7855;52.210;5.982;2022-08-11T03:32:23;10;;;4;;
15506;SDS011;7855;52.210;5.982;2022-08-11T03:34:37;10;;;5;;
15506;SDS011;7855;52.210;5.982;2022-08-11T03:37:10;11;;;5;;
15506;SDS011;7855;52.210;5.982;2022-08-11T03:39:06;8;;;4;;
15506;SDS011;7855;52.210;5.982;2022-08-11T03:41:22;13;;;5;;
15506;SDS011;7855;52.210;5.982;2022-08-11T03:43:38;13;;;5;;
15506;SDS011;7855;52.210;5.982;2022-08-11T03:45:51;8;;;3;;
15506;SDS011;7855;52.210;5.982;2022-08-11T03:48:07;11;;;5;;
15506;SDS011;7855;52.210;5.982;2022-08-11T03:50:21;9;;;4;;
15506;SDS011;7855;52.210;5.982;2022-08-11T03:52:36;9;;;4;;
15506;SDS011;7855;52.210;5.982;2022-08-11T03:54:49;13;;;4;;
15506;SDS011;7855;52.210;5.982;2022-08-11T03:57:07;13;;;5;;
15506;SDS011;7855;52.210;5.982;2022-08-11T03:59:21;9;;;4;;
15506;SDS011;7855;52.210;5.982;2022-08-11T04:03:51;10;;;4;;
15506;SDS011;7855;52.210;5.982;2022-08-11T04:06:13;9;;;4;;
15506;SDS011;7855;52.210;5.982;2022-08-11T04:08:17;9;;;4;;
15506;SDS011;7855;52.210;5.982;2022-08-11T04:10:39;8;;;4;;
15506;SDS011;7855;52.210;5.982;2022-08-11T04:12:52;10;;;5;;
15506;SDS011;7855;52.210;5.982;2022-08-11T04:15:03;10;;;5;;
15506;SDS011;7855;52.210;5.982;2022-08-11T04:19:41;13;;;5;;
15506;SDS011;7855;52.210;5.982;2022-08-11T04:23:55;10;;;5;;
15506;SDS011;7855;52.210;5.982;2022-08-11T04:26:13;11;;;4;;
15506;SDS011;7855;52.210;5.982;2022-08-11T04:28:24;13;;;5;;
15506;SDS011;7855;52.210;5.982;2022-08-11T04:30:43;9;;;5;;
15506;SDS011;7855;52.210;5.982;2022-08-11T04:33:00;12;;;6;;
15506;SDS011;7855;52.210;5.982;2022-08-11T04:35:10;12;;;5;;
15506;SDS011;7855;52.210;5.982;2022-08-11T04:39:40;9;;;5;;
15506;SDS011;7855;52.210;5.982;2022-08-11T04:41:53;9;;;5;;
15506;SDS011;7855;52.210;5.982;2022-08-11T04:44:20;8;;;4;;
15506;SDS011;7855;52.210;5.982;2022-08-11T04:46:22;10;;;6;;
15506;SDS011;7855;52.210;5.982;2022-08-11T04:50:55;12;;;5;;
15506;SDS011;7855;52.210;5.982;2022-08-11T04:53:09;10;;;5;;
15506;SDS011;7855;52.210;5.982;2022-08-11T04:55:25;10;;;6;;
15506;SDS011;7855;52.210;5.982;2022-08-11T04:57:33;11;;;6;;
15506;SDS011;7855;52.210;5.982;2022-08-11T04:59:58;15;;;6;;
15506;SDS011;7855;52.210;5.982;2022-08-11T05:02:09;9;;;5;;
15506;SDS011;7855;52.210;5.982;2022-08-11T05:06:34;10;;;6;;
15506;SDS011;7855;52.210;5.982;2022-08-11T05:11:01;13;;;6;;
15506;SDS011;7855;52.210;5.982;2022-08-11T05:13:12;10;;;6;;
15506;SDS011;7855;52.210;5.982;2022-08-11T05:15:32;9;;;6;;
15506;SDS011;7855;52.210;5.982;2022-08-11T05:17:41;11;;;5;;
15506;SDS011;7855;52.210;5.982;2022-08-11T05:19:55;10;;;6;;
15506;SDS011;7855;52.210;5.982;2022-08-11T05:22:10;11;;;7;;
15506;SDS011;7855;52.210;5.982;2022-08-11T05:24:25;12;;;7;;
15506;SDS011;7855;52.210;5.982;2022-08-11T05:26:41;18;;;6;;
15506;SDS011;7855;52.210;5.982;2022-08-11T05:28:53;11;;;5;;
15506;SDS011;7855;52.210;5.982;2022-08-11T05:31:09;13;;;7;;
15506;SDS011;7855;52.210;5.982;2022-08-11T05:33:23;13;;;7;;
15506;SDS011;7855;52.210;5.982;2022-08-11T05:35:37;11;;;6;;
15506;SDS011;7855;52.210;5.982;2022-08-11T05:37:50;13;;;6;;
15506;SDS011;7855;52.210;5.982;2022-08-11T05:40:05;14;;;6;;
15506;SDS011;7855;52.210;5.982;2022-08-11T05:42:20;12;;;6;;
15506;SDS011;7855;52.210;5.982;2022-08-11T05:44:33;9;;;5;;
15506;SDS011;7855;52.210;5.982;2022-08-11T05:46:47;10;;;7;;
15506;SDS011;7855;52.210;5.982;2022-08-11T05:49:02;12;;;5;;
15506;SDS011;7855;52.210;5.982;2022-08-11T05:51:16;14;;;6;;
15506;SDS011;7855;52.210;5.982;2022-08-11T05:53:30;10;;;6;;
15506;SDS011;7855;52.210;5.982;2022-08-11T05:55:45;11;;;6;;
15506;SDS011;7855;52.210;5.982;2022-08-11T05:58:00;11;;;5;;
15506;SDS011;7855;52.210;5.982;2022-08-11T06:00:14;12;;;6;;
15506;SDS011;7855;52.210;5.982;2022-08-11T06:02:27;12;;;6;;
15506;SDS011;7855;52.210;5.982;2022-08-11T06:04:41;12;;;6;;
15506;SDS011;7855;52.210;5.982;2022-08-11T06:06:57;9;;;5;;
15506;SDS011;7855;52.210;5.982;2022-08-11T06:09:11;10;;;6;;
15506;SDS011;7855;52.210;5.982;2022-08-11T06:11:25;13;;;6;;
15506;SDS011;7855;52.210;5.982;2022-08-11T06:13:42;12;;;6;;
15506;SDS011;7855;52.210;5.982;2022-08-11T06:15:54;11;;;7;;
15506;SDS011;7855;52.210;5.982;2022-08-11T06:18:08;16;;;6;;
15506;SDS011;7855;52.210;5.982;2022-08-11T06:20:23;13;;;5;;
15506;SDS011;7855;52.210;5.982;2022-08-11T06:22:38;13;;;6;;
15506;SDS011;7855;52.210;5.982;2022-08-11T06:24:52;13;;;7;;
15506;SDS011;7855;52.210;5.982;2022-08-11T06:27:07;12;;;7;;
15506;SDS011;7855;52.210;5.982;2022-08-11T06:29:21;11;;;6;;
15506;SDS011;7855;52.210;5.982;2022-08-11T06:31:35;13;;;5;;
15506;SDS011;7855;52.210;5.982;2022-08-11T06:33:52;10;;;5;;
15506;SDS011;7855;52.210;5.982;2022-08-11T06:36:04;13;;;5;;
15506;SDS011;7855;52.210;5.982;2022-08-11T06:38:23;9;;;5;;
15506;SDS011;7855;52.210;5.982;2022-08-11T06:40:35;14;;;5;;
15506;SDS011;7855;52.210;5.982;2022-08-11T06:42:50;8;;;5;;
15506;SDS011;7855;52.210;5.982;2022-08-11T06:45:04;10;;;6;;
15506;SDS011;7855;52.210;5.982;2022-08-11T06:47:16;14;;;5;;
15506;SDS011;7855;52.210;5.982;2022-08-11T06:49:33;12;;;5;;
15506;SDS011;7855;52.210;5.982;2022-08-11T06:51:46;10;;;5;;
15506;SDS011;7855;52.210;5.982;2022-08-11T06:54:00;13;;;4;;
15506;SDS011;7855;52.210;5.982;2022-08-11T06:56:15;11;;;4;;
15506;SDS011;7855;52.210;5.982;2022-08-11T06:58:30;9;;;5;;
15506;SDS011;7855;52.210;5.982;2022-08-11T07:00:43;13;;;5;;
15506;SDS011;7855;52.210;5.982;2022-08-11T07:02:58;9;;;4;;
15506;SDS011;7855;52.210;5.982;2022-08-11T07:05:13;10;;;4;;
15506;SDS011;7855;52.210;5.982;2022-08-11T07:07:36;20;;;4;;
15506;SDS011;7855;52.210;5.982;2022-08-11T07:09:54;12;;;5;;
15506;SDS011;7855;52.210;5.982;2022-08-11T07:12:00;9;;;4;;
15506;SDS011;7855;52.210;5.982;2022-08-11T07:14:10;13;;;4;;
15506;SDS011;7855;52.210;5.982;2022-08-11T07:16:25;10;;;4;;
15506;SDS011;7855;52.210;5.982;2022-08-11T07:18:39;13;;;5;;
15506;SDS011;7855;52.210;5.982;2022-08-11T07:20:53;10;;;4;;
15506;SDS011;7855;52.210;5.982;2022-08-11T07:23:08;10;;;5;;
15506;SDS011;7855;52.210;5.982;2022-08-11T07:25:22;13;;;5;;
15506;SDS011;7855;52.210;5.982;2022-08-11T07:27:39;14;;;5;;
15506;SDS011;7855;52.210;5.982;2022-08-11T07:29:51;13;;;4;;
15506;SDS011;7855;52.210;5.982;2022-08-11T07:32:09;10;;;4;;
15506;SDS011;7855;52.210;5.982;2022-08-11T07:34:20;13;;;4;;
15506;SDS011;7855;52.210;5.982;2022-08-11T07:36:36;12;;;3;;
15506;SDS011;7855;52.210;5.982;2022-08-11T07:38:49;8;;;4;;
15506;SDS011;7855;52.210;5.982;2022-08-11T07:41:03;11;;;4;;
15506;SDS011;7855;52.210;5.982;2022-08-11T07:43:17;9;;;4;;
15506;SDS011;7855;52.210;5.982;2022-08-11T07:45:32;9;;;3;;
15506;SDS011;7855;52.210;5.982;2022-08-11T07:47:46;9;;;4;;
15506;SDS011;7855;52.210;5.982;2022-08-11T07:50:01;8;;;3;;
15506;SDS011;7855;52.210;5.982;2022-08-11T07:52:15;8;;;3;;
15506;SDS011;7855;52.210;5.982;2022-08-11T07:54:30;7;;;3;;
15506;SDS011;7855;52.210;5.982;2022-08-11T07:56:44;8;;;3;;
15506;SDS011;7855;52.210;5.982;2022-08-11T07:58:59;11;;;2;;
15506;SDS011;7855;52.210;5.982;2022-08-11T08:01:16;7;;;3;;
15506;SDS011;7855;52.210;5.982;2022-08-11T08:03:28;9;;;3;;
15506;SDS011;7855;52.210;5.982;2022-08-11T08:05:43;8;;;4;;
15506;SDS011;7855;52.210;5.982;2022-08-11T08:07:57;7;;;3;;
15506;SDS011;7855;52.210;5.982;2022-08-11T08:10:11;13;;;4;;
15506;SDS011;7855;52.210;5.982;2022-08-11T08:12:26;10;;;3;;
15506;SDS011;7855;52.210;5.982;2022-08-11T08:14:40;15;;;3;;
15506;SDS011;7855;52.210;5.982;2022-08-11T08:16:55;16;;;7;;
15506;SDS011;7855;52.210;5.982;2022-08-11T08:19:10;16;;;3;;
15506;SDS011;7855;52.210;5.982;2022-08-11T08:21:23;10;;;2;;
15506;SDS011;7855;52.210;5.982;2022-08-11T08:23:38;9;;;2;;
15506;SDS011;7855;52.210;5.982;2022-08-11T08:25:51;4;;;1;;
15506;SDS011;7855;52.210;5.982;2022-08-11T08:28:06;6;;;1;;
15506;SDS011;7855;52.210;5.982;2022-08-11T08:30:20;6;;;1;;
15506;SDS011;7855;52.210;5.982;2022-08-11T08:32:36;16;;;7;;
15506;SDS011;7855;52.210;5.982;2022-08-11T08:34:49;10;;;4;;
15506;SDS011;7855;52.210;5.982;2022-08-11T08:37:04;6;;;3;;
15506;SDS011;7855;52.210;5.982;2022-08-11T08:39:18;9;;;1;;
15506;SDS011;7855;52.210;5.982;2022-08-11T08:41:32;6;;;1;;
15506;SDS011;7855;52.210;5.982;2022-08-11T08:43:47;8;;;1;;
15506;SDS011;7855;52.210;5.982;2022-08-11T08:46:01;7;;;2;;
15506;SDS011;7855;52.210;5.982;2022-08-11T08:48:16;7;;;1;;
15506;SDS011;7855;52.210;5.982;2022-08-11T08:50:31;4;;;1;;
15506;SDS011;7855;52.210;5.982;2022-08-11T08:52:46;10;;;2;;
15506;SDS011;7855;52.210;5.982;2022-08-11T08:55:01;3;;;1;;
15506;SDS011;7855;52.210;5.982;2022-08-11T08:57:13;4;;;1;;
15506;SDS011;7855;52.210;5.982;2022-08-11T08:59:28;4;;;1;;
15506;SDS011;7855;52.210;5.982;2022-08-11T09:01:45;3;;;1;;
15506;SDS011;7855;52.210;5.982;2022-08-11T09:03:57;8;;;1;;
15506;SDS011;7855;52.210;5.982;2022-08-11T09:06:11;4;;;1;;
15506;SDS011;7855;52.210;5.982;2022-08-11T09:08:26;4;;;1;;
15506;SDS011;7855;52.210;5.982;2022-08-11T09:10:40;7;;;1;;
15506;SDS011;7855;52.210;5.982;2022-08-11T09:12:54;7;;;1;;
15506;SDS011;7855;52.210;5.982;2022-08-11T09:15:10;4;;;1;;
15506;SDS011;7855;52.210;5.982;2022-08-11T09:17:24;4;;;1;;
15506;SDS011;7855;52.210;5.982;2022-08-11T09:19:38;7;;;1;;
15506;SDS011;7855;52.210;5.982;2022-08-11T09:21:52;4;;;1;;
15506;SDS011;7855;52.210;5.982;2022-08-11T09:24:06;3;;;1;;
15506;SDS011;7855;52.210;5.982;2022-08-11T09:26:21;9;;;1;;
15506;SDS011;7855;52.210;5.982;2022-08-11T09:28:36;9;;;2;;
15506;SDS011;7855;52.210;5.982;2022-08-11T09:30:51;10;;;1;;
15506;SDS011;7855;52.210;5.982;2022-08-11T09:33:04;11;;;2;;
15506;SDS011;7855;52.210;5.982;2022-08-11T09:35:19;11;;;2;;
15506;SDS011;7855;52.210;5.982;2022-08-11T09:37:34;6;;;1;;
15506;SDS011;7855;52.210;5.982;2022-08-11T09:39:48;3;;;1;;
15506;SDS011;7855;52.210;5.982;2022-08-11T09:42:03;3;;;1;;
15506;SDS011;7855;52.210;5.982;2022-08-11T09:44:17;9;;;1;;
15506;SDS011;7855;52.210;5.982;2022-08-11T09:46:31;3;;;1;;
15506;SDS011;7855;52.210;5.982;2022-08-11T09:48:46;11;;;2;;
15506;SDS011;7855;52.210;5.982;2022-08-11T09:51:00;4;;;2;;
15506;SDS011;7855;52.210;5.982;2022-08-11T09:53:15;11;;;4;;
15506;SDS011;7855;52.210;5.982;2022-08-11T09:55:29;6;;;1;;
15506;SDS011;7855;52.210;5.982;2022-08-11T09:57:44;3;;;1;;
15506;SDS011;7855;52.210;5.982;2022-08-11T09:59:58;7;;;2;;
15506;SDS011;7855;52.210;5.982;2022-08-11T10:02:12;3;;;1;;
15506;SDS011;7855;52.210;5.982;2022-08-11T10:04:30;7;;;2;;
15506;SDS011;7855;52.210;5.982;2022-08-11T10:06:42;8;;;1;;
15506;SDS011;7855;52.210;5.982;2022-08-11T10:08:56;5;;;2;;
15506;SDS011;7855;52.210;5.982;2022-08-11T10:11:11;3;;;1;;
15506;SDS011;7855;52.210;5.982;2022-08-11T10:13:26;4;;;1;;
15506;SDS011;7855;52.210;5.982;2022-08-11T10:15:39;5;;;2;;
15506;SDS011;7855;52.210;5.982;2022-08-11T10:17:55;6;;;1;;
15506;SDS011;7855;52.210;5.982;2022-08-11T10:20:09;4;;;1;;
15506;SDS011;7855;52.210;5.982;2022-08-11T10:22:22;4;;;1;;
15506;SDS011;7855;52.210;5.982;2022-08-11T10:24:37;8;;;2;;
15506;SDS011;7855;52.210;5.982;2022-08-11T10:26:52;7;;;1;;
15506;SDS011;7855;52.210;5.982;2022-08-11T10:29:06;5;;;1;;
15506;SDS011;7855;52.210;5.982;2022-08-11T10:31:20;4;;;1;;
15506;SDS011;7855;52.210;5.982;2022-08-11T10:33:35;3;;;1;;
15506;SDS011;7855;52.210;5.982;2022-08-11T10:35:49;3;;;1;;
15506;SDS011;7855;52.210;5.982;2022-08-11T10:38:04;4;;;1;;
15506;SDS011;7855;52.210;5.982;2022-08-11T10:40:19;3;;;1;;
15506;SDS011;7855;52.210;5.982;2022-08-11T10:42:32;4;;;1;;
15506;SDS011;7855;52.210;5.982;2022-08-11T10:44:49;15;;;1;;
15506;SDS011;7855;52.210;5.982;2022-08-11T10:47:02;6;;;1;;
15506;SDS011;7855;52.210;5.982;2022-08-11T10:49:15;7;;;1;;
15506;SDS011;7855;52.210;5.982;2022-08-11T10:51:29;5;;;1;;
15506;SDS011;7855;52.210;5.982;2022-08-11T10:53:44;10;;;3;;
15506;SDS011;7855;52.210;5.982;2022-08-11T10:55:58;4;;;2;;
15506;SDS011;7855;52.210;5.982;2022-08-11T10:58:13;4;;;2;;
15506;SDS011;7855;52.210;5.982;2022-08-11T11:00:27;12;;;2;;
15506;SDS011;7855;52.210;5.982;2022-08-11T11:02:42;8;;;1;;
15506;SDS011;7855;52.210;5.982;2022-08-11T11:04:58;3;;;1;;
15506;SDS011;7855;52.210;5.982;2022-08-11T11:07:13;7;;;1;;
15506;SDS011;7855;52.210;5.982;2022-08-11T11:09:27;5;;;1;;
15506;SDS011;7855;52.210;5.982;2022-08-11T11:11:42;8;;;1;;
15506;SDS011;7855;52.210;5.982;2022-08-11T11:13:54;3;;;1;;
15506;SDS011;7855;52.210;5.982;2022-08-11T11:16:08;3;;;1;;
15506;SDS011;7855;52.210;5.982;2022-08-11T11:18:23;11;;;9;;
15506;SDS011;7855;52.210;5.982;2022-08-11T11:20:39;9;;;1;;
15506;SDS011;7855;52.210;5.982;2022-08-11T11:22:53;4;;;1;;
15506;SDS011;7855;52.210;5.982;2022-08-11T11:25:11;3;;;1;;
15506;SDS011;7855;52.210;5.982;2022-08-11T11:27:23;3;;;1;;
15506;SDS011;7855;52.210;5.982;2022-08-11T11:29:41;8;;;3;;
15506;SDS011;7855;52.210;5.982;2022-08-11T11:31:52;5;;;2;;
15506;SDS011;7855;52.210;5.982;2022-08-11T11:34:11;4;;;1;;
15506;SDS011;7855;52.210;5.982;2022-08-11T11:36:20;3;;;1;;
15506;SDS011;7855;52.210;5.982;2022-08-11T11:38:32;5;;;1;;
15506;SDS011;7855;52.210;5.982;2022-08-11T11:40:47;31;;;25;;
15506;SDS011;7855;52.210;5.982;2022-08-11T11:43:02;10;;;7;;
15506;SDS011;7855;52.210;5.982;2022-08-11T11:45:16;8;;;5;;
15506;SDS011;7855;52.210;5.982;2022-08-11T11:47:31;3;;;1;;
15506;SDS011;7855;52.210;5.982;2022-08-11T11:49:45;11;;;7;;
15506;SDS011;7855;52.210;5.982;2022-08-11T11:52:00;4;;;3;;
15506;SDS011;7855;52.210;5.982;2022-08-11T11:54:14;8;;;1;;
15506;SDS011;7855;52.210;5.982;2022-08-11T11:56:28;5;;;1;;
15506;SDS011;7855;52.210;5.982;2022-08-11T11:58:43;5;;;3;;
15506;SDS011;7855;52.210;5.982;2022-08-11T12:00:57;3;;;1;;
15506;SDS011;7855;52.210;5.982;2022-08-11T12:03:11;13;;;10;;
15506;SDS011;7855;52.210;5.982;2022-08-11T12:05:26;23;;;14;;
15506;SDS011;7855;52.210;5.982;2022-08-11T12:07:41;3;;;1;;
15506;SDS011;7855;52.210;5.982;2022-08-11T12:09:55;4;;;1;;
15506;SDS011;7855;52.210;5.982;2022-08-11T12:12:10;3;;;1;;
15506;SDS011;7855;52.210;5.982;2022-08-11T12:14:24;6;;;1;;
15506;SDS011;7855;52.210;5.982;2022-08-11T12:16:39;6;;;1;;
15506;SDS011;7855;52.210;5.982;2022-08-11T12:18:54;4;;;1;;
15506;SDS011;7855;52.210;5.982;2022-08-11T12:21:08;4;;;1;;
15506;SDS011;7855;52.210;5.982;2022-08-11T12:23:21;8;;;1;;
15506;SDS011;7855;52.210;5.982;2022-08-11T12:25:36;4;;;1;;
15506;SDS011;7855;52.210;5.982;2022-08-11T12:27:51;5;;;1;;
15506;SDS011;7855;52.210;5.982;2022-08-11T12:30:05;6;;;2;;
15506;SDS011;7855;52.210;5.982;2022-08-11T12:32:20;3;;;0;;
15506;SDS011;7855;52.210;5.982;2022-08-11T12:34:34;8;;;1;;
15506;SDS011;7855;52.210;5.982;2022-08-11T12:36:50;12;;;1;;
15506;SDS011;7855;52.210;5.982;2022-08-11T12:39:04;4;;;1;;
15506;SDS011;7855;52.210;5.982;2022-08-11T12:41:17;3;;;1;;
15506;SDS011;7855;52.210;5.982;2022-08-11T12:43:32;9;;;1;;
15506;SDS011;7855;52.210;5.982;2022-08-11T12:45:46;5;;;1;;
15506;SDS011;7855;52.210;5.982;2022-08-11T12:48:03;10;;;9;;
15506;SDS011;7855;52.210;5.982;2022-08-11T12:50:15;27;;;10;;
15506;SDS011;7855;52.210;5.982;2022-08-11T12:52:31;2;;;1;;
15506;SDS011;7855;52.210;5.982;2022-08-11T12:54:47;5;;;2;;
15506;SDS011;7855;52.210;5.982;2022-08-11T12:56:59;6;;;4;;
15506;SDS011;7855;52.210;5.982;2022-08-11T12:59:13;8;;;5;;
15506;SDS011;7855;52.210;5.982;2022-08-11T13:01:27;11;;;9;;
15506;SDS011;7855;52.210;5.982;2022-08-11T13:03:42;7;;;1;;
15506;SDS011;7855;52.210;5.982;2022-08-11T13:05:57;4;;;1;;
15506;SDS011;7855;52.210;5.982;2022-08-11T13:08:11;3;;;0;;
15506;SDS011;7855;52.210;5.982;2022-08-11T13:10:25;2;;;1;;
15506;SDS011;7855;52.210;5.982;2022-08-11T13:12:39;3;;;1;;
15506;SDS011;7855;52.210;5.982;2022-08-11T13:14:53;4;;;1;;
15506;SDS011;7855;52.210;5.982;2022-08-11T13:17:08;2;;;1;;
15506;SDS011;7855;52.210;5.982;2022-08-11T13:19:22;3;;;1;;
15506;SDS011;7855;52.210;5.982;2022-08-11T13:21:37;3;;;1;;
15506;SDS011;7855;52.210;5.982;2022-08-11T13:23:52;4;;;1;;
15506;SDS011;7855;52.210;5.982;2022-08-11T13:26:06;3;;;1;;
15506;SDS011;7855;52.210;5.982;2022-08-11T13:28:20;4;;;1;;
15506;SDS011;7855;52.210;5.982;2022-08-11T13:30:35;3;;;1;;
15506;SDS011;7855;52.210;5.982;2022-08-11T13:32:48;4;;;1;;
15506;SDS011;7855;52.210;5.982;2022-08-11T13:35:02;5;;;1;;
15506;SDS011;7855;52.210;5.982;2022-08-11T13:37:16;3;;;1;;
15506;SDS011;7855;52.210;5.982;2022-08-11T13:39:32;10;;;1;;
15506;SDS011;7855;52.210;5.982;2022-08-11T13:41:45;3;;;1;;
15506;SDS011;7855;52.210;5.982;2022-08-11T13:44:00;6;;;1;;
15506;SDS011;7855;52.210;5.982;2022-08-11T13:46:14;3;;;1;;
15506;SDS011;7855;52.210;5.982;2022-08-11T13:48:29;2;;;1;;
15506;SDS011;7855;52.210;5.982;2022-08-11T13:50:43;2;;;1;;
15506;SDS011;7855;52.210;5.982;2022-08-11T13:52:58;3;;;1;;
15506;SDS011;7855;52.210;5.982;2022-08-11T13:55:12;3;;;1;;
15506;SDS011;7855;52.210;5.982;2022-08-11T13:57:28;2;;;1;;
15506;SDS011;7855;52.210;5.982;2022-08-11T13:59:41;2;;;1;;
15506;SDS011;7855;52.210;5.982;2022-08-11T14:01:57;8;;;1;;
15506;SDS011;7855;52.210;5.982;2022-08-11T14:04:10;2;;;0;;
15506;SDS011;7855;52.210;5.982;2022-08-11T14:06:25;2;;;1;;
15506;SDS011;7855;52.210;5.982;2022-08-11T14:08:39;5;;;2;;
15506;SDS011;7855;52.210;5.982;2022-08-11T14:10:54;3;;;1;;
15506;SDS011;7855;52.210;5.982;2022-08-11T14:13:09;4;;;2;;
15506;SDS011;7855;52.210;5.982;2022-08-11T14:15:23;3;;;2;;
15506;SDS011;7855;52.210;5.982;2022-08-11T14:17:38;3;;;1;;
15506;SDS011;7855;52.210;5.982;2022-08-11T14:19:51;9;;;1;;
15506;SDS011;7855;52.210;5.982;2022-08-11T14:22:06;13;;;2;;
15506;SDS011;7855;52.210;5.982;2022-08-11T14:24:20;8;;;1;;
15506;SDS011;7855;52.210;5.982;2022-08-11T14:26:35;11;;;1;;
15506;SDS011;7855;52.210;5.982;2022-08-11T14:28:49;2;;;1;;
15506;SDS011;7855;52.210;5.982;2022-08-11T14:31:03;12;;;1;;
15506;SDS011;7855;52.210;5.982;2022-08-11T14:33:18;5;;;1;;
15506;SDS011;7855;52.210;5.982;2022-08-11T14:35:32;5;;;3;;
15506;SDS011;7855;52.210;5.982;2022-08-11T14:37:47;3;;;1;;
15506;SDS011;7855;52.210;5.982;2022-08-11T14:40:02;3;;;1;;
15506;SDS011;7855;52.210;5.982;2022-08-11T14:42:16;5;;;1;;
15506;SDS011;7855;52.210;5.982;2022-08-11T14:44:31;2;;;1;;
15506;SDS011;7855;52.210;5.982;2022-08-11T14:46:45;7;;;3;;
15506;SDS011;7855;52.210;5.982;2022-08-11T14:48:59;7;;;2;;
15506;SDS011;7855;52.210;5.982;2022-08-11T14:51:13;5;;;4;;
15506;SDS011;7855;52.210;5.982;2022-08-11T14:53:28;10;;;9;;
15506;SDS011;7855;52.210;5.982;2022-08-11T14:55:42;3;;;2;;
15506;SDS011;7855;52.210;5.982;2022-08-11T14:57:57;8;;;1;;
15506;SDS011;7855;52.210;5.982;2022-08-11T15:00:12;7;;;1;;
15506;SDS011;7855;52.210;5.982;2022-08-11T15:02:25;7;;;5;;
15506;SDS011;7855;52.210;5.982;2022-08-11T15:04:40;13;;;12;;
15506;SDS011;7855;52.210;5.982;2022-08-11T15:06:54;10;;;8;;
15506;SDS011;7855;52.210;5.982;2022-08-11T15:09:09;5;;;1;;
15506;SDS011;7855;52.210;5.982;2022-08-11T15:11:24;18;;;16;;
15506;SDS011;7855;52.210;5.982;2022-08-11T15:13:38;16;;;7;;
15506;SDS011;7855;52.210;5.982;2022-08-11T15:15:52;6;;;2;;
15506;SDS011;7855;52.210;5.982;2022-08-11T15:18:09;3;;;2;;
15506;SDS011;7855;52.210;5.982;2022-08-11T15:20:21;33;;;29;;
15506;SDS011;7855;52.210;5.982;2022-08-11T15:22:36;35;;;32;;
15506;SDS011;7855;52.210;5.982;2022-08-11T15:24:50;35;;;32;;
15506;SDS011;7855;52.210;5.982;2022-08-11T15:27:05;29;;;27;;
15506;SDS011;7855;52.210;5.982;2022-08-11T15:29:20;9;;;8;;
15506;SDS011;7855;52.210;5.982;2022-08-11T15:31:34;33;;;31;;